Airfield :
LOGIN :

Register | Disclaimer

   EN    FR    IT 

 










Legend :    VFR   Marginal VFR   IFR   Intensive IFR   Very Intensive IFR
Visi :
Ceiling :
>= 8 km
>= 3000ft
5 to 8 km
1000 to 3000 ft
1500m to 5 km
500 to 1000 ft
800 to 1500m
200 to 500 ft
< 800m
< 200 ft
Symbols :   Thunderstorms  Fog  Heavy snow  Heavy precipitations  Wind > 20 kt
SIGMETs :     Misc.  Thunderstorms  Icing  Turbulence  Mountain Waves  Volcanic Ashes






- Airport Elevation : 502 ft
- IATA code : ORK


EICK - Cork

CURRENT METAR :
  • 192030Z 16005KT 1800 -RADZ FEW001 BKN002 BKN016 08/07 Q1017 NOSIG

EXPIRED METARs :
  • 192000Z 18004KT 1600 -RADZ SCT001 BKN002 BKN016 08/08 Q1017 NOSIG
  • 191930Z 18005KT 140V200 2000 -RADZ FEW001 BKN002 BKN013 08/07 Q1017 NOSIG
  • 191900Z 17006KT 1800 -RADZ SCT001 BKN002 08/07 Q1017 NOSIG
  • 191830Z 17006KT 150V210 1800 -RADZ FEW001 BKN002 08/07 Q1017 NOSIG
  • 191800Z 16007KT 2500 -RA OVC002 08/07 Q1017 TEMPO 2000

TAF AMD TAF EICK
Valid from the 19 at 19:00 until the 20 at 18:00 UTC


191913Z 1919/2018 16008KT 3000 -RADZ BR SCT001 BKN003
TEMPO 1919/2009 0800 FG BKN001
BECMG 2005/2007 11006KT
PROB40
TEMPO 2005/2009 5000 -DZ SCT003 BKN008
BECMG 2009/2011 9999 NSW SCT008 BKN015
PROB30
TEMPO 2011/2018 4000 -DZ BKN008



MET'MAP, your aeronautical weather chart ! - Copyright ORBIFLY December 2007 - Disclaimer

ORBIFLY MET'MAP TEAM :

Programming & Development : Alexandra Zaïnal
Concept & original design : Baudouin d'Aumeries
Assistance for programming : Marc-Olivier Méhu
Technical & hardware support : Manuel Goepfert

Contact : metmap@orbifly.com




SOURCES & CREDITS :

   NOAA